sensor_id;sensor_type;location;lat;lon;timestamp;pressure;altitude;pressure_sealevel;temperature;humidity
19736;BME280;32064;49.310;8.646;2023-01-08T00:00:47;99941.97;;;11.57;70.96
19736;BME280;32064;49.310;8.646;2023-01-08T00:03:13;99946.97;;;11.60;70.42
19736;BME280;32064;49.310;8.646;2023-01-08T00:05:38;99948.09;;;11.58;71.45
19736;BME280;32064;49.310;8.646;2023-01-08T00:08:04;99936.59;;;11.59;70.14
19736;BME280;32064;49.310;8.646;2023-01-08T00:10:29;99941.72;;;11.60;70.64
19736;BME280;32064;49.310;8.646;2023-01-08T00:12:55;99936.69;;;11.57;71.73
19736;BME280;32064;49.310;8.646;2023-01-08T00:15:21;99934.97;;;11.46;70.31
19736;BME280;32064;49.310;8.646;2023-01-08T00:17:46;99923.34;;;11.38;72.45
19736;BME280;32064;49.310;8.646;2023-01-08T00:20:12;99926.34;;;11.44;69.99
19736;BME280;32064;49.310;8.646;2023-01-08T00:22:37;99912.44;;;11.42;71.34
19736;BME280;32064;49.310;8.646;2023-01-08T00:25:03;99891.53;;;11.41;72.29
19736;BME280;32064;49.310;8.646;2023-01-08T00:27:29;99898.78;;;11.49;69.87
19736;BME280;32064;49.310;8.646;2023-01-08T00:29:54;99904.03;;;11.49;71.71
19736;BME280;32064;49.310;8.646;2023-01-08T00:32:19;99891.59;;;11.51;71.62
19736;BME280;32064;49.310;8.646;2023-01-08T00:34:45;99885.03;;;11.45;72.08
19736;BME280;32064;49.310;8.646;2023-01-08T00:37:10;99885.13;;;11.43;70.96
19736;BME280;32064;49.310;8.646;2023-01-08T00:39:36;99880.84;;;11.42;71.28
19736;BME280;32064;49.310;8.646;2023-01-08T00:42:01;99888.28;;;11.37;72.00
19736;BME280;32064;49.310;8.646;2023-01-08T00:44:27;99877.88;;;11.36;71.24
19736;BME280;32064;49.310;8.646;2023-01-08T00:46:52;99867.81;;;11.41;71.39
19736;BME280;32064;49.310;8.646;2023-01-08T00:49:17;99885.75;;;11.47;70.93
19736;BME280;32064;49.310;8.646;2023-01-08T00:51:43;99881.16;;;11.49;71.68
19736;BME280;32064;49.310;8.646;2023-01-08T00:54:10;99861.22;;;11.46;70.04
19736;BME280;32064;49.310;8.646;2023-01-08T00:56:35;99848.25;;;11.43;70.35
19736;BME280;32064;49.310;8.646;2023-01-08T00:59:01;99853.31;;;11.46;71.32
19736;BME280;32064;49.310;8.646;2023-01-08T01:01:26;99854.44;;;11.54;70.10
19736;BME280;32064;49.310;8.646;2023-01-08T01:03:52;99851.97;;;11.52;71.34
19736;BME280;32064;49.310;8.646;2023-01-08T01:06:17;99855.53;;;11.51;70.42
19736;BME280;32064;49.310;8.646;2023-01-08T01:08:43;99855.44;;;11.53;70.23
19736;BME280;32064;49.310;8.646;2023-01-08T01:11:23;99844.69;;;11.44;70.99
19736;BME280;32064;49.310;8.646;2023-01-08T01:13:49;99861.78;;;11.50;70.07
19736;BME280;32064;49.310;8.646;2023-01-08T01:16:15;99851.00;;;11.53;69.53
19736;BME280;32064;49.310;8.646;2023-01-08T01:18:41;99855.28;;;11.54;71.29
19736;BME280;32064;49.310;8.646;2023-01-08T01:21:21;99845.97;;;11.50;69.85
19736;BME280;32064;49.310;8.646;2023-01-08T01:23:46;99853.38;;;11.56;69.83
19736;BME280;32064;49.310;8.646;2023-01-08T01:26:16;99859.41;;;11.47;70.92
19736;BME280;32064;49.310;8.646;2023-01-08T01:28:42;99850.16;;;11.53;69.63
19736;BME280;32064;49.310;8.646;2023-01-08T01:31:11;99858.63;;;11.56;69.61
19736;BME280;32064;49.310;8.646;2023-01-08T01:33:38;99859.09;;;11.61;70.56
19736;BME280;32064;49.310;8.646;2023-01-08T01:36:04;99862.56;;;11.62;69.50
19736;BME280;32064;49.310;8.646;2023-01-08T01:38:29;99856.19;;;11.64;70.08
19736;BME280;32064;49.310;8.646;2023-01-08T01:40:55;99853.69;;;11.63;69.71
19736;BME280;32064;49.310;8.646;2023-01-08T01:43:53;99864.28;;;11.52;71.60
19736;BME280;32064;49.310;8.646;2023-01-08T01:46:24;99853.56;;;11.64;69.84
19736;BME280;32064;49.310;8.646;2023-01-08T01:48:55;99864.63;;;11.58;69.65
19736;BME280;32064;49.310;8.646;2023-01-08T01:51:24;99852.13;;;11.60;71.49
19736;BME280;32064;49.310;8.646;2023-01-08T01:53:53;99855.09;;;11.67;70.29
19736;BME280;32064;49.310;8.646;2023-01-08T01:56:19;99849.19;;;11.54;70.38
19736;BME280;32064;49.310;8.646;2023-01-08T01:58:45;99860.50;;;11.65;69.33
19736;BME280;32064;49.310;8.646;2023-01-08T02:01:10;99854.03;;;11.69;69.86
19736;BME280;32064;49.310;8.646;2023-01-08T02:03:38;99855.22;;;11.65;69.55
19736;BME280;32064;49.310;8.646;2023-01-08T02:06:22;99854.13;;;11.68;69.37
19736;BME280;32064;49.310;8.646;2023-01-08T02:11:48;99848.75;;;11.69;70.99
19736;BME280;32064;49.310;8.646;2023-01-08T02:14:45;99840.38;;;11.64;70.63
19736;BME280;32064;49.310;8.646;2023-01-08T02:17:16;99839.81;;;11.61;70.59
19736;BME280;32064;49.310;8.646;2023-01-08T02:19:48;99839.94;;;11.59;69.78
19736;BME280;32064;49.310;8.646;2023-01-08T02:22:34;99827.38;;;11.52;70.66
19736;BME280;32064;49.310;8.646;2023-01-08T02:27:43;99822.84;;;11.54;70.60
19736;BME280;32064;49.310;8.646;2023-01-08T02:30:10;99814.94;;;11.54;70.68
19736;BME280;32064;49.310;8.646;2023-01-08T02:32:37;99813.03;;;11.56;70.41
19736;BME280;32064;49.310;8.646;2023-01-08T02:35:04;99810.38;;;11.56;68.90
19736;BME280;32064;49.310;8.646;2023-01-08T02:37:30;99812.75;;;11.59;68.95
19736;BME280;32064;49.310;8.646;2023-01-08T02:40:13;99812.56;;;11.51;69.65
19736;BME280;32064;49.310;8.646;2023-01-08T02:42:54;99806.31;;;11.52;68.99
19736;BME280;32064;49.310;8.646;2023-01-08T02:48:12;99797.66;;;11.40;70.35
19736;BME280;32064;49.310;8.646;2023-01-08T02:50:55;99799.19;;;11.42;70.70
19736;BME280;32064;49.310;8.646;2023-01-08T02:53:28;99778.94;;;11.43;70.39
19736;BME280;32064;49.310;8.646;2023-01-08T02:55:57;99760.97;;;11.48;69.89
19736;BME280;32064;49.310;8.646;2023-01-08T02:58:26;99773.13;;;11.39;69.92
19736;BME280;32064;49.310;8.646;2023-01-08T03:00:54;99787.88;;;11.31;70.19
19736;BME280;32064;49.310;8.646;2023-01-08T03:03:27;99788.16;;;11.28;71.58
19736;BME280;32064;49.310;8.646;2023-01-08T03:05:59;99788.72;;;11.31;69.24
19736;BME280;32064;49.310;8.646;2023-01-08T03:08:26;99791.59;;;11.28;70.46
19736;BME280;32064;49.310;8.646;2023-01-08T03:11:09;99788.97;;;11.28;71.70
19736;BME280;32064;49.310;8.646;2023-01-08T03:13:39;99783.59;;;11.30;71.48
19736;BME280;32064;49.310;8.646;2023-01-08T03:16:25;99775.34;;;11.23;70.11
19736;BME280;32064;49.310;8.646;2023-01-08T03:18:58;99767.78;;;11.30;70.11
19736;BME280;32064;49.310;8.646;2023-01-08T03:21:27;99763.34;;;11.30;69.76
19736;BME280;32064;49.310;8.646;2023-01-08T03:23:53;99760.31;;;11.35;69.79
19736;BME280;32064;49.310;8.646;2023-01-08T03:26:21;99749.38;;;11.30;69.31
19736;BME280;32064;49.310;8.646;2023-01-08T03:28:52;99751.34;;;11.37;70.09
19736;BME280;32064;49.310;8.646;2023-01-08T03:31:18;99748.59;;;11.39;69.43
19736;BME280;32064;49.310;8.646;2023-01-08T03:33:45;99744.59;;;11.44;69.51
19736;BME280;32064;49.310;8.646;2023-01-08T03:36:17;99738.75;;;11.41;70.89
19736;BME280;32064;49.310;8.646;2023-01-08T03:38:49;99742.50;;;11.38;69.12
19736;BME280;32064;49.310;8.646;2023-01-08T03:41:19;99743.78;;;11.44;69.42
19736;BME280;32064;49.310;8.646;2023-01-08T03:43:45;99749.72;;;11.46;71.14
19736;BME280;32064;49.310;8.646;2023-01-08T03:46:15;99744.59;;;11.44;71.41
19736;BME280;32064;49.310;8.646;2023-01-08T03:48:44;99734.31;;;11.41;69.76
19736;BME280;32064;49.310;8.646;2023-01-08T03:51:10;99728.53;;;11.48;70.41
19736;BME280;32064;49.310;8.646;2023-01-08T03:53:35;99727.00;;;11.45;71.27
19736;BME280;32064;49.310;8.646;2023-01-08T03:56:01;99723.66;;;11.43;69.79
19736;BME280;32064;49.310;8.646;2023-01-08T03:58:27;99733.22;;;11.44;71.06
19736;BME280;32064;49.310;8.646;2023-01-08T04:00:52;99733.66;;;11.49;70.47
19736;BME280;32064;49.310;8.646;2023-01-08T04:03:18;99729.34;;;11.48;70.84
19736;BME280;32064;49.310;8.646;2023-01-08T04:05:43;99731.09;;;11.38;70.86
19736;BME280;32064;49.310;8.646;2023-01-08T04:08:09;99738.56;;;11.33;70.95
19736;BME280;32064;49.310;8.646;2023-01-08T04:10:34;99735.03;;;11.22;71.12
19736;BME280;32064;49.310;8.646;2023-01-08T04:13:00;99725.31;;;11.23;71.76
19736;BME280;32064;49.310;8.646;2023-01-08T04:15:25;99726.09;;;11.35;72.33
19736;BME280;32064;49.310;8.646;2023-01-08T04:17:52;99736.75;;;11.33;71.27
19736;BME280;32064;49.310;8.646;2023-01-08T04:20:17;99739.84;;;11.38;72.54
19736;BME280;32064;49.310;8.646;2023-01-08T04:22:43;99744.84;;;11.41;71.78
19736;BME280;32064;49.310;8.646;2023-01-08T04:25:08;99745.13;;;11.38;72.62
19736;BME280;32064;49.310;8.646;2023-01-08T04:27:34;99755.50;;;11.40;71.91
19736;BME280;32064;49.310;8.646;2023-01-08T04:29:59;99755.06;;;11.35;71.83
19736;BME280;32064;49.310;8.646;2023-01-08T04:32:25;99753.50;;;11.32;72.85
19736;BME280;32064;49.310;8.646;2023-01-08T04:34:50;99755.47;;;11.30;72.35
19736;BME280;32064;49.310;8.646;2023-01-08T04:37:15;99751.03;;;11.31;72.42
19736;BME280;32064;49.310;8.646;2023-01-08T04:39:41;99746.13;;;11.26;72.75
19736;BME280;32064;49.310;8.646;2023-01-08T04:42:06;99751.13;;;11.29;73.44
19736;BME280;32064;49.310;8.646;2023-01-08T04:44:31;99748.75;;;11.26;73.64
19736;BME280;32064;49.310;8.646;2023-01-08T04:46:57;99753.91;;;11.28;73.31
19736;BME280;32064;49.310;8.646;2023-01-08T04:49:22;99754.75;;;11.28;74.61
19736;BME280;32064;49.310;8.646;2023-01-08T04:51:48;99755.97;;;11.24;75.78
19736;BME280;32064;49.310;8.646;2023-01-08T04:54:13;99747.00;;;11.27;74.25
19736;BME280;32064;49.310;8.646;2023-01-08T04:56:38;99766.09;;;11.29;75.21
19736;BME280;32064;49.310;8.646;2023-01-08T04:59:04;99752.81;;;11.30;75.55
19736;BME280;32064;49.310;8.646;2023-01-08T05:01:29;99757.88;;;11.22;76.59
19736;BME280;32064;49.310;8.646;2023-01-08T05:04:00;99759.56;;;11.23;74.89
19736;BME280;32064;49.310;8.646;2023-01-08T05:06:27;99759.50;;;11.13;76.73
19736;BME280;32064;49.310;8.646;2023-01-08T05:08:54;99748.72;;;11.16;76.67
19736;BME280;32064;49.310;8.646;2023-01-08T05:11:19;99755.25;;;11.22;76.11
19736;BME280;32064;49.310;8.646;2023-01-08T05:13:49;99763.78;;;11.14;77.92
19736;BME280;32064;49.310;8.646;2023-01-08T05:16:15;99756.88;;;11.13;78.08
19736;BME280;32064;49.310;8.646;2023-01-08T05:18:42;99764.50;;;11.16;76.03
19736;BME280;32064;49.310;8.646;2023-01-08T05:21:07;99761.72;;;11.18;77.46
19736;BME280;32064;49.310;8.646;2023-01-08T05:23:33;99759.50;;;11.13;76.95
19736;BME280;32064;49.310;8.646;2023-01-08T05:25:59;99753.59;;;11.21;77.07
19736;BME280;32064;49.310;8.646;2023-01-08T05:28:26;99760.63;;;11.20;78.72
19736;BME280;32064;49.310;8.646;2023-01-08T05:30:51;99761.03;;;11.16;78.06
19736;BME280;32064;49.310;8.646;2023-01-08T05:33:17;99760.31;;;11.14;79.46
19736;BME280;32064;49.310;8.646;2023-01-08T05:35:42;99763.66;;;11.16;79.02
19736;BME280;32064;49.310;8.646;2023-01-08T05:38:07;99756.28;;;11.10;78.11
19736;BME280;32064;49.310;8.646;2023-01-08T05:40:33;99757.94;;;11.11;78.96
19736;BME280;32064;49.310;8.646;2023-01-08T05:42:59;99754.03;;;11.05;78.66
19736;BME280;32064;49.310;8.646;2023-01-08T05:45:25;99751.31;;;10.95;79.76
19736;BME280;32064;49.310;8.646;2023-01-08T05:47:50;99758.81;;;11.00;80.42
19736;BME280;32064;49.310;8.646;2023-01-08T05:50:15;99758.81;;;11.00;78.97
19736;BME280;32064;49.310;8.646;2023-01-08T05:52:41;99761.47;;;11.00;78.97
19736;BME280;32064;49.310;8.646;2023-01-08T05:55:07;99753.09;;;10.95;81.11
19736;BME280;32064;49.310;8.646;2023-01-08T05:57:32;99742.47;;;10.96;79.85
19736;BME280;32064;49.310;8.646;2023-01-08T05:59:57;99735.06;;;10.90;79.39
19736;BME280;32064;49.310;8.646;2023-01-08T06:02:23;99738.13;;;10.95;80.92
19736;BME280;32064;49.310;8.646;2023-01-08T06:04:48;99738.53;;;10.91;80.25
19736;BME280;32064;49.310;8.646;2023-01-08T06:07:14;99729.56;;;10.93;80.99
19736;BME280;32064;49.310;8.646;2023-01-08T06:09:39;99728.31;;;10.97;80.25
19736;BME280;32064;49.310;8.646;2023-01-08T06:12:05;99731.53;;;11.01;79.86
19736;BME280;32064;49.310;8.646;2023-01-08T06:14:31;99725.44;;;11.00;80.74
19736;BME280;32064;49.310;8.646;2023-01-08T06:16:56;99719.91;;;11.04;80.59
19736;BME280;32064;49.310;8.646;2023-01-08T06:19:21;99708.44;;;11.05;81.27
19736;BME280;32064;49.310;8.646;2023-01-08T06:21:47;99717.19;;;11.05;80.93
19736;BME280;32064;49.310;8.646;2023-01-08T06:24:12;99715.38;;;11.06;80.28
19736;BME280;32064;49.310;8.646;2023-01-08T06:26:38;99725.78;;;11.07;80.57
19736;BME280;32064;49.310;8.646;2023-01-08T06:29:03;99723.53;;;11.02;79.72
19736;BME280;32064;49.310;8.646;2023-01-08T06:31:28;99726.16;;;11.02;80.60
19736;BME280;32064;49.310;8.646;2023-01-08T06:33:54;99732.13;;;11.05;81.38
19736;BME280;32064;49.310;8.646;2023-01-08T06:36:19;99728.53;;;11.06;82.01
19736;BME280;32064;49.310;8.646;2023-01-08T06:38:45;99723.84;;;11.09;80.75
19736;BME280;32064;49.310;8.646;2023-01-08T06:41:10;99717.38;;;11.13;82.51
19736;BME280;32064;49.310;8.646;2023-01-08T06:43:36;99725.28;;;11.13;82.11
19736;BME280;32064;49.310;8.646;2023-01-08T06:46:06;99724.56;;;11.11;82.68
19736;BME280;32064;49.310;8.646;2023-01-08T06:48:33;99721.91;;;11.11;82.98
19736;BME280;32064;49.310;8.646;2023-01-08T06:50:59;99731.81;;;11.19;80.70
19736;BME280;32064;49.310;8.646;2023-01-08T06:53:25;99731.94;;;11.17;82.38
19736;BME280;32064;49.310;8.646;2023-01-08T06:55:50;99735.03;;;11.22;82.33
19736;BME280;32064;49.310;8.646;2023-01-08T06:58:22;99730.59;;;11.23;83.06
19736;BME280;32064;49.310;8.646;2023-01-08T07:00:49;99724.88;;;11.18;81.58
19736;BME280;32064;49.310;8.646;2023-01-08T07:03:15;99726.56;;;11.19;82.26
19736;BME280;32064;49.310;8.646;2023-01-08T07:05:41;99725.31;;;11.23;82.83
19736;BME280;32064;49.310;8.646;2023-01-08T07:08:13;99728.47;;;11.17;82.12
19736;BME280;32064;49.310;8.646;2023-01-08T07:10:39;99724.50;;;11.22;82.63
19736;BME280;32064;49.310;8.646;2023-01-08T07:13:05;99727.84;;;11.24;82.65
19736;BME280;32064;49.310;8.646;2023-01-08T07:15:32;99721.88;;;11.22;82.36
19736;BME280;32064;49.310;8.646;2023-01-08T07:17:57;99720.31;;;11.20;81.83
19736;BME280;32064;49.310;8.646;2023-01-08T07:20:22;99729.75;;;11.22;83.17
19736;BME280;32064;49.310;8.646;2023-01-08T07:22:48;99722.56;;;11.24;81.74
19736;BME280;32064;49.310;8.646;2023-01-08T07:25:13;99731.88;;;11.29;82.78
19736;BME280;32064;49.310;8.646;2023-01-08T07:27:39;99733.81;;;11.27;82.70
19736;BME280;32064;49.310;8.646;2023-01-08T07:30:05;99735.47;;;11.28;83.88
19736;BME280;32064;49.310;8.646;2023-01-08T07:32:30;99742.16;;;11.32;83.85
19736;BME280;32064;49.310;8.646;2023-01-08T07:34:56;99730.53;;;11.34;82.88
19736;BME280;32064;49.310;8.646;2023-01-08T07:37:24;99734.50;;;11.29;84.45
19736;BME280;32064;49.310;8.646;2023-01-08T07:39:50;99737.72;;;11.32;82.66
19736;BME280;32064;49.310;8.646;2023-01-08T07:42:17;99746.31;;;11.34;84.13
19736;BME280;32064;49.310;8.646;2023-01-08T07:44:43;99746.91;;;11.38;82.72
19736;BME280;32064;49.310;8.646;2023-01-08T07:47:08;99748.59;;;11.39;84.58
19736;BME280;32064;49.310;8.646;2023-01-08T07:49:33;99748.59;;;11.39;84.07
19736;BME280;32064;49.310;8.646;2023-01-08T07:51:59;99755.41;;;11.41;82.96
19736;BME280;32064;49.310;8.646;2023-01-08T07:54:24;99747.34;;;11.43;84.73
19736;BME280;32064;49.310;8.646;2023-01-08T07:56:49;99743.50;;;11.47;83.37
19736;BME280;32064;49.310;8.646;2023-01-08T07:59:17;99737.97;;;11.50;83.70
19736;BME280;32064;49.310;8.646;2023-01-08T08:01:46;99740.72;;;11.49;84.84
19736;BME280;32064;49.310;8.646;2023-01-08T08:04:14;99743.09;;;11.52;84.98
19736;BME280;32064;49.310;8.646;2023-01-08T08:06:39;99737.25;;;11.48;84.21
19736;BME280;32064;49.310;8.646;2023-01-08T08:09:04;99740.16;;;11.45;84.68
19736;BME280;32064;49.310;8.646;2023-01-08T08:11:30;99736.69;;;11.44;84.61
19736;BME280;32064;49.310;8.646;2023-01-08T08:13:55;99738.25;;;11.47;85.71
19736;BME280;32064;49.310;8.646;2023-01-08T08:16:20;99736.56;;;11.46;85.71
19736;BME280;32064;49.310;8.646;2023-01-08T08:18:46;99730.44;;;11.45;85.58
19736;BME280;32064;49.310;8.646;2023-01-08T08:21:11;99735.47;;;11.49;84.93
19736;BME280;32064;49.310;8.646;2023-01-08T08:23:37;99736.44;;;11.48;86.14
19736;BME280;32064;49.310;8.646;2023-01-08T08:26:03;99727.00;;;11.45;84.11
19736;BME280;32064;49.310;8.646;2023-01-08T08:28:28;99725.19;;;11.45;85.23
19736;BME280;32064;49.310;8.646;2023-01-08T08:30:54;99726.88;;;11.46;86.20
19736;BME280;32064;49.310;8.646;2023-01-08T08:33:19;99723.97;;;11.50;84.35
19736;BME280;32064;49.310;8.646;2023-01-08T08:35:48;99728.16;;;11.52;85.68
19736;BME280;32064;49.310;8.646;2023-01-08T08:38:15;99732.44;;;11.53;85.58
19736;BME280;32064;49.310;8.646;2023-01-08T08:40:41;99731.72;;;11.51;84.88
19736;BME280;32064;49.310;8.646;2023-01-08T08:43:07;99723.44;;;11.56;86.86
19736;BME280;32064;49.310;8.646;2023-01-08T08:45:34;99729.09;;;11.51;85.91
19736;BME280;32064;49.310;8.646;2023-01-08T08:48:00;99718.03;;;11.57;85.86
19736;BME280;32064;49.310;8.646;2023-01-08T08:50:25;99721.75;;;11.55;86.60
19736;BME280;32064;49.310;8.646;2023-01-08T08:52:51;99716.00;;;11.61;85.74
19736;BME280;32064;49.310;8.646;2023-01-08T08:55:16;99718.47;;;11.62;86.24
19736;BME280;32064;49.310;8.646;2023-01-08T08:57:43;99719.31;;;11.63;87.12
19736;BME280;32064;49.310;8.646;2023-01-08T09:00:09;99720.84;;;11.65;86.79
19736;BME280;32064;49.310;8.646;2023-01-08T09:02:35;99720.03;;;11.65;87.07
19736;BME280;32064;49.310;8.646;2023-01-08T09:05:00;99715.47;;;11.67;87.84
19736;BME280;32064;49.310;8.646;2023-01-08T09:07:26;99720.72;;;11.67;87.18
19736;BME280;32064;49.310;8.646;2023-01-08T09:09:51;99730.84;;;11.72;87.31
19736;BME280;32064;49.310;8.646;2023-01-08T09:12:17;99715.31;;;11.68;88.09
19736;BME280;32064;49.310;8.646;2023-01-08T09:14:42;99726.47;;;11.82;87.54
19736;BME280;32064;49.310;8.646;2023-01-08T09:17:08;99718.56;;;11.82;88.33
19736;BME280;32064;49.310;8.646;2023-01-08T09:19:33;99722.75;;;11.84;88.12
19736;BME280;32064;49.310;8.646;2023-01-08T09:22:00;99723.00;;;11.81;87.87
19736;BME280;32064;49.310;8.646;2023-01-08T09:24:27;99730.91;;;11.81;87.45
19736;BME280;32064;49.310;8.646;2023-01-08T09:26:53;99721.53;;;11.88;86.59
19736;BME280;32064;49.310;8.646;2023-01-08T09:29:19;99715.38;;;11.78;87.65
19736;BME280;32064;49.310;8.646;2023-01-08T09:31:45;99714.97;;;11.83;88.31
19736;BME280;32064;49.310;8.646;2023-01-08T09:34:11;99708.31;;;11.79;87.26
19736;BME280;32064;49.310;8.646;2023-01-08T09:36:37;99710.88;;;11.90;87.84
19736;BME280;32064;49.310;8.646;2023-01-08T09:39:02;99717.69;;;11.93;87.05
19736;BME280;32064;49.310;8.646;2023-01-08T09:41:33;99718.38;;;11.95;87.13
19736;BME280;32064;49.310;8.646;2023-01-08T09:44:02;99714.06;;;11.94;88.17
19736;BME280;32064;49.310;8.646;2023-01-08T09:46:29;99717.25;;;11.97;87.04
19736;BME280;32064;49.310;8.646;2023-01-08T09:48:58;99724.78;;;12.02;87.68
19736;BME280;32064;49.310;8.646;2023-01-08T09:51:31;99712.13;;;11.96;88.24
19736;BME280;32064;49.310;8.646;2023-01-08T09:53:57;99706.88;;;12.05;88.70
19736;BME280;32064;49.310;8.646;2023-01-08T09:56:23;99705.09;;;12.06;87.32
19736;BME280;32064;49.310;8.646;2023-01-08T09:58:55;99714.25;;;12.11;88.56
19736;BME280;32064;49.310;8.646;2023-01-08T10:01:25;99705.13;;;12.16;88.42
19736;BME280;32064;49.310;8.646;2023-01-08T10:04:24;99714.13;;;12.03;87.76
19736;BME280;32064;49.310;8.646;2023-01-08T10:06:54;99708.88;;;12.23;87.57
19736;BME280;32064;49.310;8.646;2023-01-08T10:09:25;99706.31;;;12.02;89.36
19736;BME280;32064;49.310;8.646;2023-01-08T10:11:52;99704.72;;;12.20;88.31
19736;BME280;32064;49.310;8.646;2023-01-08T10:14:30;99708.88;;;12.23;87.23
19736;BME280;32064;49.310;8.646;2023-01-08T10:17:15;99703.19;;;12.27;87.56
19736;BME280;32064;49.310;8.646;2023-01-08T10:19:44;99705.00;;;12.27;87.75
19736;BME280;32064;49.310;8.646;2023-01-08T10:22:16;99697.88;;;12.08;89.71
19736;BME280;32064;49.310;8.646;2023-01-08T10:24:42;99693.88;;;12.13;89.06
19736;BME280;32064;49.310;8.646;2023-01-08T10:27:12;99694.03;;;12.22;88.20
19736;BME280;32064;49.310;8.646;2023-01-08T10:29:39;99696.81;;;12.30;88.29
19736;BME280;32064;49.310;8.646;2023-01-08T10:32:18;99692.25;;;12.32;88.78
19736;BME280;32064;49.310;8.646;2023-01-08T10:34:50;99683.63;;;12.40;89.13
19736;BME280;32064;49.310;8.646;2023-01-08T10:37:24;99685.47;;;12.49;88.60
19736;BME280;32064;49.310;8.646;2023-01-08T10:39:51;99679.47;;;12.56;87.50
19736;BME280;32064;49.310;8.646;2023-01-08T10:42:19;99675.63;;;12.61;88.68
19736;BME280;32064;49.310;8.646;2023-01-08T10:45:09;99675.47;;;12.62;88.63
19736;BME280;32064;49.310;8.646;2023-01-08T10:47:37;99662.28;;;12.72;88.31
19736;BME280;32064;49.310;8.646;2023-01-08T10:50:04;99662.97;;;12.84;88.54
19736;BME280;32064;49.310;8.646;2023-01-08T10:52:32;99664.63;;;12.85;87.65
19736;BME280;32064;49.310;8.646;2023-01-08T10:57:58;99650.84;;;12.91;87.53
19736;BME280;32064;49.310;8.646;2023-01-08T11:00:27;99636.50;;;13.13;87.19
19736;BME280;32064;49.310;8.646;2023-01-08T11:02:53;99637.47;;;13.31;86.95
19736;BME280;32064;49.310;8.646;2023-01-08T11:05:28;99639.59;;;13.55;86.27
19736;BME280;32064;49.310;8.646;2023-01-08T11:07:57;99628.16;;;13.64;85.82
19736;BME280;32064;49.310;8.646;2023-01-08T11:10:26;99632.41;;;13.75;85.66
19736;BME280;32064;49.310;8.646;2023-01-08T11:12:57;99627.91;;;13.85;85.46
19736;BME280;32064;49.310;8.646;2023-01-08T11:15:42;99626.72;;;13.70;84.96
19736;BME280;32064;49.310;8.646;2023-01-08T11:18:27;99626.72;;;13.42;85.41
19736;BME280;32064;49.310;8.646;2023-01-08T11:21:06;99621.38;;;13.52;85.21
19736;BME280;32064;49.310;8.646;2023-01-08T11:23:32;99610.94;;;13.78;84.81
19736;BME280;32064;49.310;8.646;2023-01-08T11:28:43;99617.03;;;13.88;84.27
19736;BME280;32064;49.310;8.646;2023-01-08T11:31:14;99608.38;;;14.14;83.34
19736;BME280;32064;49.310;8.646;2023-01-08T11:33:43;99592.34;;;14.15;83.33
19736;BME280;32064;49.310;8.646;2023-01-08T11:36:26;99596.34;;;14.20;82.98
19736;BME280;32064;49.310;8.646;2023-01-08T11:38:53;99588.72;;;14.17;83.12
19736;BME280;32064;49.310;8.646;2023-01-08T11:44:33;99578.97;;;13.99;82.46
19736;BME280;32064;49.310;8.646;2023-01-08T11:49:39;99571.94;;;14.26;82.65
19736;BME280;32064;49.310;8.646;2023-01-08T11:52:08;99564.09;;;14.16;82.97
19736;BME280;32064;49.310;8.646;2023-01-08T11:54:59;99557.28;;;13.96;83.44
19736;BME280;32064;49.310;8.646;2023-01-08T11:57:38;99545.63;;;13.88;82.79
19736;BME280;32064;49.310;8.646;2023-01-08T12:03:14;99548.13;;;13.90;82.88
19736;BME280;32064;49.310;8.646;2023-01-08T12:05:53;99551.75;;;13.89;82.73
19736;BME280;32064;49.310;8.646;2023-01-08T12:11:11;99530.28;;;13.92;82.66
19736;BME280;32064;49.310;8.646;2023-01-08T12:14:18;99526.59;;;13.85;82.75
19736;BME280;32064;49.310;8.646;2023-01-08T12:19:50;99519.78;;;14.00;82.51
19736;BME280;32064;49.310;8.646;2023-01-08T12:22:41;99519.34;;;14.05;81.97
19736;BME280;32064;49.310;8.646;2023-01-08T12:25:21;99519.19;;;14.06;81.82
19736;BME280;32064;49.310;8.646;2023-01-08T12:28:13;99514.19;;;14.03;81.66
19736;BME280;32064;49.310;8.646;2023-01-08T12:33:17;99520.41;;;13.94;81.56
19736;BME280;32064;49.310;8.646;2023-01-08T12:35:48;99518.28;;;13.80;82.21
19736;BME280;32064;49.310;8.646;2023-01-08T12:38:47;99509.56;;;13.69;82.02
19736;BME280;32064;49.310;8.646;2023-01-08T12:41:17;99504.53;;;13.76;82.20
19736;BME280;32064;49.310;8.646;2023-01-08T12:43:59;99507.22;;;13.66;81.33
19736;BME280;32064;49.310;8.646;2023-01-08T12:46:30;99502.19;;;13.73;81.56
19736;BME280;32064;49.310;8.646;2023-01-08T12:48:56;99512.16;;;13.79;81.73
19736;BME280;32064;49.310;8.646;2023-01-08T12:54:16;99499.59;;;13.63;80.94
19736;BME280;32064;49.310;8.646;2023-01-08T13:04:53;99489.84;;;13.64;80.93
19736;BME280;32064;49.310;8.646;2023-01-08T13:10:40;99480.41;;;13.61;81.50
19736;BME280;32064;49.310;8.646;2023-01-08T13:12:40;99471.56;;;13.53;81.56
19736;BME280;32064;49.310;8.646;2023-01-08T13:15:19;99469.25;;;13.50;81.33
19736;BME280;32064;49.310;8.646;2023-01-08T13:17:47;99469.19;;;13.59;81.16
19736;BME280;32064;49.310;8.646;2023-01-08T13:20:20;99470.16;;;13.58;81.16
19736;BME280;32064;49.310;8.646;2023-01-08T13:22:55;99469.25;;;13.50;81.18
19736;BME280;32064;49.310;8.646;2023-01-08T13:27:50;99457.00;;;13.48;81.28
19736;BME280;32064;49.310;8.646;2023-01-08T13:30:32;99450.44;;;13.35;81.47
19736;BME280;32064;49.310;8.646;2023-01-08T13:32:58;99445.63;;;13.48;80.85
19736;BME280;32064;49.310;8.646;2023-01-08T13:35:30;99440.84;;;13.52;80.81
19736;BME280;32064;49.310;8.646;2023-01-08T13:38:17;99448.47;;;13.55;80.63
19736;BME280;32064;49.310;8.646;2023-01-08T13:43:18;99438.69;;;13.65;80.41
19736;BME280;32064;49.310;8.646;2023-01-08T13:48:28;99439.03;;;13.70;81.11
19736;BME280;32064;49.310;8.646;2023-01-08T13:50:54;99436.88;;;13.65;82.11
19736;BME280;32064;49.310;8.646;2023-01-08T13:53:20;99440.50;;;13.64;81.49
19736;BME280;32064;49.310;8.646;2023-01-08T13:55:54;99450.06;;;13.65;81.67
19736;BME280;32064;49.310;8.646;2023-01-08T13:58:26;99449.09;;;13.66;82.00
19736;BME280;32064;49.310;8.646;2023-01-08T14:00:54;99434.75;;;13.69;82.06